Time;durP1;ratioP1;P1;durP2;ratioP2;P2;SDS_P1;SDS_P2;PMS_P1;PMS_P2;Temp;Humidity;BMP_temperature;BMP_pressure;BME280_temperature;BME280_humidity;BME280_pressure;Samples;Min_cycle;Max_cycle;Signal;HPM_P1;HPM_P2
2023/06/11 00:00:15;;;;;;;2.03;1.83;;;;;;;;;;2089406;28;20057;-59
2023/06/11 00:01:35;;;;;;;2.85;1.98;;;;;;;;;;2092740;28;20032;-59
2023/06/11 00:02:54;;;;;;;4.13;1.33;;;;;;;;;;2092936;28;20049;-60
2023/06/11 00:04:13;;;;;;;5.18;2.15;;;;;;;;;;2092179;28;20025;-58
2023/06/11 00:05:32;;;;;;;4.13;2.22;;;;;;;;;;2094141;28;20028;-60
2023/06/11 00:06:56;;;;;;;3.28;2.30;;;;;;;;;;2092811;28;20020;-59
2023/06/11 00:08:15;;;;;;;4.57;2.72;;;;;;;;;;2081935;28;20497;-58
2023/06/11 00:09:33;;;;;;;4.13;1.88;;;;;;;;;;2089895;28;20024;-61
2023/06/11 00:10:52;;;;;;;2.78;2.47;;;;;;;;;;2093802;28;20021;-58
2023/06/11 00:12:12;;;;;;;4.18;3.78;;;;;;;;;;2082440;28;20021;-60
2023/06/11 00:13:31;;;;;;;2.10;1.73;;;;;;;;;;2091149;28;20029;-59
2023/06/11 00:14:50;;;;;;;4.45;3.75;;;;;;;;;;2093696;28;20025;-58
2023/06/11 00:16:11;;;;;;;2.63;1.95;;;;;;;;;;2084379;28;20028;-59
2023/06/11 00:17:32;;;;;;;9.50;2.05;;;;;;;;;;2090728;28;20033;-58
2023/06/11 00:18:51;;;;;;;3.30;1.90;;;;;;;;;;2091810;28;20115;-58
2023/06/11 00:20:11;;;;;;;6.78;1.50;;;;;;;;;;2093965;28;20100;-59
2023/06/11 00:21:30;;;;;;;3.35;1.40;;;;;;;;;;2095993;28;20036;-58
2023/06/11 00:22:49;;;;;;;4.60;1.55;;;;;;;;;;2094069;28;20037;-59
2023/06/11 00:24:08;;;;;;;10.82;1.85;;;;;;;;;;2092864;28;20028;-60
2023/06/11 00:25:27;;;;;;;5.90;1.55;;;;;;;;;;2092216;28;20025;-59
2023/06/11 00:26:46;;;;;;;5.40;1.75;;;;;;;;;;2095349;28;20017;-59
2023/06/11 00:28:05;;;;;;;11.77;2.00;;;;;;;;;;2094379;28;20024;-60
2023/06/11 00:29:24;;;;;;;4.03;1.85;;;;;;;;;;2092627;28;20036;-60
2023/06/11 00:30:42;;;;;;;11.65;2.67;;;;;;;;;;2084649;28;20025;-59
2023/06/11 00:32:01;;;;;;;8.43;2.55;;;;;;;;;;2090894;28;20107;-59
2023/06/11 00:33:20;;;;;;;8.52;2.35;;;;;;;;;;2093116;28;20029;-59
2023/06/11 00:34:39;;;;;;;4.50;2.38;;;;;;;;;;2092660;28;20032;-61
2023/06/11 00:35:58;;;;;;;5.57;2.20;;;;;;;;;;2094068;28;20020;-58
2023/06/11 00:37:17;;;;;;;6.40;2.10;;;;;;;;;;2096012;28;20028;-60
2023/06/11 00:38:36;;;;;;;8.35;2.05;;;;;;;;;;2084216;28;20501;-61
2023/06/11 00:39:56;;;;;;;6.05;2.30;;;;;;;;;;2090172;28;20029;-60
2023/06/11 00:41:14;;;;;;;5.53;2.17;;;;;;;;;;2093465;28;20037;-59
2023/06/11 00:42:33;;;;;;;8.35;2.13;;;;;;;;;;2095841;28;20115;-60
2023/06/11 00:43:54;;;;;;;7.88;2.30;;;;;;;;;;2094709;28;20024;-60
2023/06/11 00:45:12;;;;;;;4.03;2.10;;;;;;;;;;2089920;28;20037;-61
2023/06/11 00:46:32;;;;;;;5.53;2.55;;;;;;;;;;2094334;28;20021;-60
2023/06/11 00:47:51;;;;;;;4.22;1.88;;;;;;;;;;2094814;28;20020;-59
2023/06/11 00:49:11;;;;;;;7.22;1.70;;;;;;;;;;2095922;28;20040;-59
2023/06/11 00:50:30;;;;;;;5.57;2.00;;;;;;;;;;2096490;28;20036;-60
2023/06/11 00:51:49;;;;;;;6.47;2.03;;;;;;;;;;2096191;28;20564;-60
2023/06/11 00:53:08;;;;;;;5.70;2.15;;;;;;;;;;2094743;28;20067;-60
2023/06/11 00:54:27;;;;;;;5.32;2.10;;;;;;;;;;2095769;28;20586;-60
2023/06/11 00:55:46;;;;;;;6.13;1.88;;;;;;;;;;2093748;28;20111;-60
2023/06/11 00:57:06;;;;;;;15.55;1.92;;;;;;;;;;2093424;28;20037;-59
2023/06/11 00:58:25;;;;;;;7.13;1.90;;;;;;;;;;2082270;28;20041;-62
2023/06/11 00:59:48;;;;;;;5.88;1.55;;;;;;;;;;2089451;28;20029;-59
2023/06/11 01:01:07;;;;;;;6.85;3.17;;;;;;;;;;2090318;28;20456;-61
2023/06/11 01:02:30;;;;;;;8.32;3.25;;;;;;;;;;2094717;28;20107;-60
2023/06/11 01:03:52;;;;;;;5.00;3.70;;;;;;;;;;2093334;28;20115;-60
2023/06/11 01:05:12;;;;;;;7.70;4.70;;;;;;;;;;2094217;28;20489;-59
2023/06/11 01:06:33;;;;;;;10.75;3.85;;;;;;;;;;2094417;28;20028;-60
2023/06/11 01:07:55;;;;;;;6.10;2.58;;;;;;;;;;2094263;28;20032;-61
2023/06/11 01:09:14;;;;;;;5.65;2.30;;;;;;;;;;2093397;28;20432;-59
2023/06/11 01:10:34;;;;;;;9.45;2.85;;;;;;;;;;2094867;28;20037;-60
2023/06/11 01:11:57;;;;;;;12.88;2.95;;;;;;;;;;2093816;28;20483;-60
2023/06/11 01:13:16;;;;;;;18.13;3.00;;;;;;;;;;2094390;28;20020;-59
2023/06/11 01:14:35;;;;;;;6.82;2.40;;;;;;;;;;2093369;28;20037;-58
2023/06/11 01:15:56;;;;;;;11.88;2.38;;;;;;;;;;2092162;28;20972;-60
2023/06/11 01:17:22;;;;;;;11.27;2.20;;;;;;;;;;2094832;28;20024;-59
2023/06/11 01:19:03;;;;;;;8.85;2.30;;;;;;;;;;2094179;28;20037;-59
2023/06/11 01:20:35;;;;;;;10.02;2.30;;;;;;;;;;2094478;28;20037;-58
2023/06/11 01:21:56;;;;;;;8.25;2.47;;;;;;;;;;2093396;28;20041;-58
2023/06/11 01:23:31;;;;;;;6.72;2.05;;;;;;;;;;2094323;28;20024;-60
2023/06/11 01:24:57;;;;;;;10.27;2.47;;;;;;;;;;2094843;28;20041;-60
2023/06/11 01:26:21;;;;;;;7.75;2.90;;;;;;;;;;2093016;28;20029;-59
2023/06/11 01:27:43;;;;;;;4.97;3.22;;;;;;;;;;2092686;28;20649;-59
2023/06/11 01:29:03;;;;;;;14.55;7.05;;;;;;;;;;2091941;28;20067;-59
2023/06/11 01:30:23;;;;;;;10.18;3.10;;;;;;;;;;2093353;28;20615;-59
2023/06/11 01:31:42;;;;;;;12.38;2.38;;;;;;;;;;2081716;28;20021;-59
2023/06/11 01:33:01;;;;;;;10.32;2.33;;;;;;;;;;2089159;28;20485;-58
2023/06/11 01:34:25;;;;;;;8.32;2.40;;;;;;;;;;2095924;28;20040;-59
2023/06/11 01:35:44;;;;;;;;;;;;;;;;;;2094573;28;20036;-60
2023/06/11 01:37:04;;;;;;;9.00;1.95;;;;;;;;;;2094939;28;19904;-59
2023/06/11 01:38:25;;;;;;;8.23;2.15;;;;;;;;;;2095251;28;20025;-58
2023/06/11 01:39:45;;;;;;;5.57;2.30;;;;;;;;;;2095803;28;20036;-59
2023/06/11 01:41:04;;;;;;;22.00;2.58;;;;;;;;;;2093491;28;20033;-60
2023/06/11 01:42:23;;;;;;;7.47;2.58;;;;;;;;;;2096477;28;20032;-59
2023/06/11 01:43:42;;;;;;;9.68;2.15;;;;;;;;;;2094868;28;20033;-59
2023/06/11 01:45:01;;;;;;;8.18;2.42;;;;;;;;;;2093754;28;20115;-59
2023/06/11 01:46:20;;;;;;;10.13;2.65;;;;;;;;;;2096153;28;20029;-58
2023/06/11 01:47:40;;;;;;;4.18;2.30;;;;;;;;;;2094347;28;20033;-59
2023/06/11 01:48:59;;;;;;;4.20;2.03;;;;;;;;;;2094849;28;20048;-60
2023/06/11 01:50:18;;;;;;;6.75;1.90;;;;;;;;;;2082737;28;20045;-61
2023/06/11 01:51:37;;;;;;;2.97;2.00;;;;;;;;;;2091128;28;20402;-61
2023/06/11 01:52:56;;;;;;;10.30;2.30;;;;;;;;;;2094852;28;20033;-60
2023/06/11 01:54:17;;;;;;;3.20;2.05;;;;;;;;;;2095468;28;20029;-60
2023/06/11 01:55:36;;;;;;;6.32;2.50;;;;;;;;;;2094617;28;20066;-60
2023/06/11 01:56:55;;;;;;;7.72;2.40;;;;;;;;;;2096967;28;20025;-58
2023/06/11 01:58:16;;;;;;;7.22;2.75;;;;;;;;;;2096359;28;20028;-60
2023/06/11 01:59:35;;;;;;;7.72;2.35;;;;;;;;;;2095987;28;20386;-59
2023/06/11 02:00:54;;;;;;;9.20;2.47;;;;;;;;;;2092252;28;20437;-58
2023/06/11 02:02:13;;;;;;;6.95;2.20;;;;;;;;;;2093597;28;20016;-59
2023/06/11 02:03:32;;;;;;;7.32;2.38;;;;;;;;;;2095445;28;20056;-60
2023/06/11 02:04:51;;;;;;;8.95;1.83;;;;;;;;;;2091322;28;20029;-59
2023/06/11 02:06:10;;;;;;;7.78;2.92;;;;;;;;;;2096304;28;20028;-60
2023/06/11 02:07:29;;;;;;;5.57;2.10;;;;;;;;;;2096459;28;20025;-59
2023/06/11 02:08:48;;;;;;;3.20;1.77;;;;;;;;;;2092765;28;20537;-59
2023/06/11 02:10:07;;;;;;;10.98;2.20;;;;;;;;;;2095678;28;20055;-60
2023/06/11 02:11:26;;;;;;;9.70;2.00;;;;;;;;;;2094960;28;20381;-59
2023/06/11 02:12:45;;;;;;;8.45;2.35;;;;;;;;;;2096678;28;20157;-59
2023/06/11 02:14:04;;;;;;;4.00;2.10;;;;;;;;;;2096361;28;20037;-59
2023/06/11 02:15:23;;;;;;;8.15;2.20;;;;;;;;;;2095099;28;21308;-60
2023/06/11 02:16:42;;;;;;;5.82;2.47;;;;;;;;;;2095626;28;20394;-60
2023/06/11 02:18:01;;;;;;;7.97;1.92;;;;;;;;;;2097148;28;20032;-60
2023/06/11 02:19:20;;;;;;;6.53;1.73;;;;;;;;;;2095657;28;20029;-60
2023/06/11 02:20:39;;;;;;;8.60;2.33;;;;;;;;;;2096818;28;20024;-60
2023/06/11 02:21:58;;;;;;;5.22;2.20;;;;;;;;;;2090054;28;20107;-59
2023/06/11 02:23:17;;;;;;;9.20;2.38;;;;;;;;;;2091180;28;20025;-60
2023/06/11 02:24:36;;;;;;;4.00;2.00;;;;;;;;;;2093177;28;20043;-59
2023/06/11 02:25:54;;;;;;;8.93;1.88;;;;;;;;;;2090260;28;20021;-59
2023/06/11 02:27:14;;;;;;;3.70;1.77;;;;;;;;;;2093521;28;20025;-59
2023/06/11 02:28:33;;;;;;;7.05;1.85;;;;;;;;;;2091561;28;20020;-59
2023/06/11 02:29:52;;;;;;;3.47;1.70;;;;;;;;;;2092476;28;20033;-59
2023/06/11 02:31:11;;;;;;;6.65;1.90;;;;;;;;;;2093154;28;20020;-58
2023/06/11 02:32:30;;;;;;;4.47;2.08;;;;;;;;;;2094043;28;20028;-58
2023/06/11 02:33:49;;;;;;;8.35;2.15;;;;;;;;;;2095901;28;20032;-59
2023/06/11 02:35:09;;;;;;;6.60;2.20;;;;;;;;;;2093963;28;20042;-62
2023/06/11 02:36:28;;;;;;;4.75;2.00;;;;;;;;;;2096760;28;20025;-65
2023/06/11 02:37:47;;;;;;;5.80;1.83;;;;;;;;;;2085725;28;20430;-59
2023/06/11 02:39:06;;;;;;;7.05;2.10;;;;;;;;;;2092481;28;20032;-60
2023/06/11 02:40:25;;;;;;;3.45;2.05;;;;;;;;;;2095286;28;20036;-60
2023/06/11 02:41:44;;;;;;;8.52;1.92;;;;;;;;;;2093613;28;20029;-59
2023/06/11 02:43:03;;;;;;;9.07;1.63;;;;;;;;;;2093430;28;20094;-60
2023/06/11 02:44:23;;;;;;;13.68;2.80;;;;;;;;;;2096186;28;20028;-58
2023/06/11 02:45:41;;;;;;;5.85;1.98;;;;;;;;;;2083564;28;20457;-60
2023/06/11 02:47:00;;;;;;;7.50;2.00;;;;;;;;;;2092514;28;20427;-59
2023/06/11 02:48:19;;;;;;;5.60;2.13;;;;;;;;;;2094665;28;20021;-61
2023/06/11 02:49:38;;;;;;;7.97;1.80;;;;;;;;;;2094352;28;20056;-59
2023/06/11 02:50:57;;;;;;;9.68;2.10;;;;;;;;;;2093732;28;20017;-59
2023/06/11 02:52:16;;;;;;;13.30;2.33;;;;;;;;;;2096214;28;20052;-59
2023/06/11 02:53:35;;;;;;;7.88;3.17;;;;;;;;;;2093371;28;20021;-59
2023/06/11 02:54:54;;;;;;;2.83;1.80;;;;;;;;;;2094419;28;20029;-61
2023/06/11 02:56:13;;;;;;;6.70;2.15;;;;;;;;;;2093925;28;20032;-59
2023/06/11 02:57:32;;;;;;;7.72;2.15;;;;;;;;;;2096838;28;20040;-62
2023/06/11 02:58:51;;;;;;;9.77;2.53;;;;;;;;;;2086075;28;20037;-59
2023/06/11 03:00:10;;;;;;;7.40;2.30;;;;;;;;;;2089689;28;20045;-61
2023/06/11 03:01:29;;;;;;;8.93;2.20;;;;;;;;;;2094258;28;20498;-61
2023/06/11 03:02:48;;;;;;;6.68;2.10;;;;;;;;;;2085427;28;20513;-61
2023/06/11 03:04:07;;;;;;;9.60;2.20;;;;;;;;;;2090203;28;20036;-60
2023/06/11 03:05:26;;;;;;;6.53;2.05;;;;;;;;;;2095780;28;20025;-60
2023/06/11 03:06:45;;;;;;;9.07;2.50;;;;;;;;;;2094955;28;20028;-62
2023/06/11 03:08:03;;;;;;;5.55;2.15;;;;;;;;;;2096231;28;20067;-63
2023/06/11 03:09:24;;;;;;;7.13;2.30;;;;;;;;;;2093041;28;20029;-59
2023/06/11 03:10:43;;;;;;;6.38;2.20;;;;;;;;;;2095066;28;20103;-62
2023/06/11 03:12:02;;;;;;;12.68;2.42;;;;;;;;;;2095494;28;20028;-61
2023/06/11 03:13:21;;;;;;;4.40;1.90;;;;;;;;;;2093711;28;20096;-60
2023/06/11 03:14:40;;;;;;;7.22;1.65;;;;;;;;;;2095558;28;20412;-60
2023/06/11 03:15:59;;;;;;;5.57;2.40;;;;;;;;;;2082717;28;20041;-63
2023/06/11 03:17:18;;;;;;;6.57;2.65;;;;;;;;;;2090844;28;20032;-63
2023/06/11 03:18:37;;;;;;;6.85;2.03;;;;;;;;;;2094608;28;20444;-60
2023/06/11 03:19:56;;;;;;;4.07;2.85;;;;;;;;;;2091114;28;20111;-60
2023/06/11 03:21:15;;;;;;;7.15;2.33;;;;;;;;;;2092181;28;20040;-61
2023/06/11 03:22:34;;;;;;;11.88;2.38;;;;;;;;;;2093682;28;20028;-60
2023/06/11 03:23:53;;;;;;;6.68;2.05;;;;;;;;;;2092213;28;20025;-62
2023/06/11 03:25:12;;;;;;;7.13;2.22;;;;;;;;;;2095022;28;20040;-60
2023/06/11 03:26:31;;;;;;;7.90;2.15;;;;;;;;;;2095648;28;20021;-61
2023/06/11 03:27:50;;;;;;;4.43;2.10;;;;;;;;;;2095015;28;21330;-62
2023/06/11 03:29:09;;;;;;;13.68;2.67;;;;;;;;;;2083076;28;20509;-60
2023/06/11 03:30:28;;;;;;;6.90;1.90;;;;;;;;;;2087878;28;20060;-60
2023/06/11 03:31:47;;;;;;;4.50;2.25;;;;;;;;;;2096387;28;20024;-63
2023/06/11 03:33:06;;;;;;;6.22;2.30;;;;;;;;;;2096241;28;20033;-61
2023/06/11 03:34:25;;;;;;;4.45;1.60;;;;;;;;;;2095146;28;20036;-62
2023/06/11 03:35:44;;;;;;;3.17;2.08;;;;;;;;;;2094799;28;20028;-60
2023/06/11 03:37:03;;;;;;;3.55;2.10;;;;;;;;;;2095380;28;20493;-60
2023/06/11 03:38:22;;;;;;;4.78;2.00;;;;;;;;;;2094907;28;20489;-60
2023/06/11 03:39:42;;;;;;;4.90;1.88;;;;;;;;;;2091400;28;20028;-60
2023/06/11 03:41:01;;;;;;;6.10;2.00;;;;;;;;;;2094762;28;20390;-63
2023/06/11 03:42:20;;;;;;;2.65;1.60;;;;;;;;;;2094361;28;20029;-60
2023/06/11 03:43:39;;;;;;;3.67;1.75;;;;;;;;;;2095959;28;20056;-67
2023/06/11 03:44:58;;;;;;;2.15;1.40;;;;;;;;;;2083248;28;20036;-61
2023/06/11 03:46:19;;;;;;;1.70;1.58;;;;;;;;;;2080752;28;20037;-60
2023/06/11 03:47:38;;;;;;;5.72;1.50;;;;;;;;;;2089912;28;20025;-60
2023/06/11 03:48:57;;;;;;;6.10;1.70;;;;;;;;;;2082797;28;20033;-61
2023/06/11 03:50:16;;;;;;;3.63;1.80;;;;;;;;;;2089348;28;20028;-66
2023/06/11 03:51:35;;;;;;;3.33;2.03;;;;;;;;;;2092677;28;20543;-59
2023/06/11 03:52:54;;;;;;;3.10;1.95;;;;;;;;;;2089445;28;20068;-59
2023/06/11 03:54:13;;;;;;;5.60;2.03;;;;;;;;;;2089241;28;20448;-61
2023/06/11 03:55:32;;;;;;;2.40;1.83;;;;;;;;;;2092431;28;20164;-60
2023/06/11 03:56:51;;;;;;;7.00;1.65;;;;;;;;;;2092684;28;20029;-59
2023/06/11 03:58:10;;;;;;;4.88;1.90;;;;;;;;;;2085928;28;20372;-59
2023/06/11 03:59:29;;;;;;;4.35;1.95;;;;;;;;;;2090612;28;20021;-61
2023/06/11 04:00:48;;;;;;;1.98;1.30;;;;;;;;;;2089539;28;20040;-60
2023/06/11 04:02:07;;;;;;;3.80;1.30;;;;;;;;;;2092768;28;20028;-61
2023/06/11 04:03:26;;;;;;;2.53;1.50;;;;;;;;;;2094839;28;20493;-60
2023/06/11 04:04:45;;;;;;;3.67;1.30;;;;;;;;;;2093368;28;20668;-58
2023/06/11 04:06:04;;;;;;;2.15;1.60;;;;;;;;;;2092910;28;20024;-60
2023/06/11 04:07:23;;;;;;;2.80;1.15;;;;;;;;;;2094373;28;20033;-59
2023/06/11 04:08:42;;;;;;;6.05;1.30;;;;;;;;;;2091581;28;20108;-60
2023/06/11 04:10:01;;;;;;;1.80;1.30;;;;;;;;;;2095603;28;20473;-60
2023/06/11 04:11:20;;;;;;;2.50;1.15;;;;;;;;;;2083067;28;20021;-60
2023/06/11 04:12:39;;;;;;;2.97;1.50;;;;;;;;;;2090807;28;20028;-58
2023/06/11 04:13:59;;;;;;;1.88;1.30;;;;;;;;;;2091944;28;20028;-60
2023/06/11 04:15:18;;;;;;;3.28;1.50;;;;;;;;;;2093917;28;20060;-59
2023/06/11 04:16:37;;;;;;;3.17;1.20;;;;;;;;;;2095736;28;20032;-59
2023/06/11 04:17:56;;;;;;;1.88;1.17;;;;;;;;;;2090933;28;20501;-59
2023/06/11 04:19:15;;;;;;;2.08;1.27;;;;;;;;;;2092505;28;20705;-58
2023/06/11 04:20:34;;;;;;;2.28;1.00;;;;;;;;;;2093501;28;20025;-60
2023/06/11 04:21:53;;;;;;;5.47;1.50;;;;;;;;;;2095251;28;20060;-59
2023/06/11 04:23:12;;;;;;;4.15;1.10;;;;;;;;;;2095119;28;20044;-59
2023/06/11 04:24:31;;;;;;;2.33;1.33;;;;;;;;;;2091237;28;20025;-60
2023/06/11 04:25:50;;;;;;;1.83;1.30;;;;;;;;;;2093748;28;20024;-59
2023/06/11 04:27:11;;;;;;;5.00;1.05;;;;;;;;;;2092176;28;20099;-60
2023/06/11 04:28:30;;;;;;;1.73;1.40;;;;;;;;;;2091708;28;20029;-60
2023/06/11 04:29:52;;;;;;;2.22;1.35;;;;;;;;;;2093394;28;20024;-61
2023/06/11 04:31:11;;;;;;;3.60;1.33;;;;;;;;;;2095800;28;20021;-59
2023/06/11 04:32:34;;;;;;;1.40;1.05;;;;;;;;;;2094446;28;20418;-59
2023/06/11 04:33:55;;;;;;;1.30;1.20;;;;;;;;;;2094487;28;20486;-59
2023/06/11 04:35:16;;;;;;;1.75;1.20;;;;;;;;;;2085109;28;20032;-59
2023/06/11 04:36:38;;;;;;;1.58;1.40;;;;;;;;;;2086780;28;20044;-60
2023/06/11 04:37:57;;;;;;;1.00;0.90;;;;;;;;;;2094209;28;20029;-58
2023/06/11 04:39:16;;;;;;;2.15;1.00;;;;;;;;;;2093046;28;20036;-59
2023/06/11 04:40:36;;;;;;;2.28;0.90;;;;;;;;;;2093234;28;20036;-60
2023/06/11 04:41:55;;;;;;;1.20;1.05;;;;;;;;;;2094268;28;20396;-60
2023/06/11 04:43:14;;;;;;;3.08;1.20;;;;;;;;;;2091807;28;20397;-60
2023/06/11 04:44:33;;;;;;;4.00;1.20;;;;;;;;;;2093689;28;20453;-60
2023/06/11 04:45:59;;;;;;;0.90;0.90;;;;;;;;;;2090900;28;20508;-60
2023/06/11 04:47:22;;;;;;;2.42;1.00;;;;;;;;;;2092472;28;20024;-60
2023/06/11 04:48:41;;;;;;;7.38;1.20;;;;;;;;;;2091783;28;20079;-66
2023/06/11 04:50:04;;;;;;;2.70;1.10;;;;;;;;;;2094698;28;21480;-59
2023/06/11 04:51:23;;;;;;;1.55;1.05;;;;;;;;;;2094374;28;20307;-60
2023/06/11 04:52:43;;;;;;;1.45;0.93;;;;;;;;;;2092795;28;20029;-60
2023/06/11 04:54:07;;;;;;;1.35;0.95;;;;;;;;;;2095321;28;20482;-58
2023/06/11 04:55:26;;;;;;;0.82;0.82;;;;;;;;;;2095007;28;20346;-60
2023/06/11 04:56:45;;;;;;;1.58;1.15;;;;;;;;;;2094660;28;20059;-60
2023/06/11 04:58:04;;;;;;;1.30;1.00;;;;;;;;;;2094747;28;20029;-61
2023/06/11 04:59:23;;;;;;;1.08;0.90;;;;;;;;;;2091856;28;20017;-59
2023/06/11 05:00:46;;;;;;;2.30;0.70;;;;;;;;;;2092998;28;20371;-60
2023/06/11 05:02:05;;;;;;;2.70;1.05;;;;;;;;;;2093576;28;20436;-60
2023/06/11 05:03:24;;;;;;;1.23;0.98;;;;;;;;;;2091311;28;20029;-59
2023/06/11 05:04:44;;;;;;;2.38;1.00;;;;;;;;;;2093592;28;20485;-59
2023/06/11 05:06:03;;;;;;;1.08;0.98;;;;;;;;;;2093314;28;20037;-59
2023/06/11 05:07:22;;;;;;;4.68;1.00;;;;;;;;;;2093719;28;20029;-61
2023/06/11 05:08:41;;;;;;;0.98;0.70;;;;;;;;;;2092624;28;20021;-58
2023/06/11 05:10:00;;;;;;;1.15;1.00;;;;;;;;;;2094683;28;20037;-60
2023/06/11 05:11:19;;;;;;;2.33;0.93;;;;;;;;;;2094495;28;20112;-61
2023/06/11 05:12:38;;;;;;;0.80;0.80;;;;;;;;;;2094588;28;20024;-63
2023/06/11 05:13:57;;;;;;;0.98;0.88;;;;;;;;;;2095144;28;20494;-61
2023/06/11 05:15:16;;;;;;;1.10;0.88;;;;;;;;;;2092459;28;20111;-67
2023/06/11 05:16:35;;;;;;;0.75;0.75;;;;;;;;;;2095512;28;20107;-59
2023/06/11 05:17:55;;;;;;;0.60;0.60;;;;;;;;;;2091023;28;20545;-60
2023/06/11 05:19:13;;;;;;;1.40;0.93;;;;;;;;;;2094448;28;20032;-60
2023/06/11 05:20:32;;;;;;;0.82;0.82;;;;;;;;;;2095966;28;20020;-61
2023/06/11 05:21:51;;;;;;;1.27;0.80;;;;;;;;;;2095526;28;20020;-60
2023/06/11 05:23:10;;;;;;;0.75;0.75;;;;;;;;;;2091336;28;20050;-60
2023/06/11 05:24:30;;;;;;;1.73;0.88;;;;;;;;;;2091601;28;20490;-61
2023/06/11 05:25:50;;;;;;;0.88;0.80;;;;;;;;;;2091942;28;20028;-58
2023/06/11 05:27:09;;;;;;;1.92;1.20;;;;;;;;;;2093511;28;20576;-60
2023/06/11 05:28:28;;;;;;;2.08;0.80;;;;;;;;;;2093415;28;20124;-60
2023/06/11 05:29:47;;;;;;;1.73;0.95;;;;;;;;;;2094839;28;20024;-60
2023/06/11 05:31:09;;;;;;;1.90;1.00;;;;;;;;;;2093828;28;20470;-60
2023/06/11 05:32:31;;;;;;;1.13;0.73;;;;;;;;;;2094423;28;20497;-60
2023/06/11 05:33:50;;;;;;;1.00;0.90;;;;;;;;;;2094817;28;20021;-60
2023/06/11 05:35:08;;;;;;;1.95;0.88;;;;;;;;;;2088316;28;20037;-60
2023/06/11 05:36:27;;;;;;;1.42;0.68;;;;;;;;;;2091955;28;20485;-58
2023/06/11 05:37:46;;;;;;;1.60;0.80;;;;;;;;;;2096267;28;20033;-60
2023/06/11 05:39:06;;;;;;;0.70;0.70;;;;;;;;;;2095274;28;20032;-60
2023/06/11 05:40:24;;;;;;;1.05;0.70;;;;;;;;;;2095989;28;20024;-59
2023/06/11 05:41:43;;;;;;;0.90;0.85;;;;;;;;;;2096600;28;20028;-60
2023/06/11 05:43:03;;;;;;;3.83;0.90;;;;;;;;;;2095276;28;20024;-59
2023/06/11 05:44:22;;;;;;;1.00;0.82;;;;;;;;;;2094477;28;20025;-60
2023/06/11 05:45:51;;;;;;;0.80;0.80;;;;;;;;;;2091524;28;20024;-60
2023/06/11 05:47:10;;;;;;;1.00;0.57;;;;;;;;;;2092761;28;20037;-60
2023/06/11 05:48:30;;;;;;;1.00;0.85;;;;;;;;;;2094389;28;20021;-60
2023/06/11 05:49:49;;;;;;;1.17;0.90;;;;;;;;;;2094859;28;20025;-62
2023/06/11 05:51:08;;;;;;;0.80;0.80;;;;;;;;;;2087999;28;20033;-60
2023/06/11 05:52:27;;;;;;;1.52;0.73;;;;;;;;;;2084437;28;20475;-59
2023/06/11 05:53:46;;;;;;;2.08;0.75;;;;;;;;;;2094903;28;20082;-58
2023/06/11 05:55:06;;;;;;;1.02;0.93;;;;;;;;;;2093319;28;20036;-60
2023/06/11 05:56:25;;;;;;;0.77;0.77;;;;;;;;;;2093836;28;20032;-60
2023/06/11 05:57:44;;;;;;;1.02;0.95;;;;;;;;;;2084282;28;20558;-61
2023/06/11 05:59:02;;;;;;;1.65;0.70;;;;;;;;;;2091457;28;20040;-59
2023/06/11 06:00:21;;;;;;;1.27;0.70;;;;;;;;;;2093846;28;20052;-60
2023/06/11 06:01:44;;;;;;;1.25;0.80;;;;;;;;;;2093380;28;20032;-60
2023/06/11 06:03:04;;;;;;;1.10;1.00;;;;;;;;;;2092427;28;20036;-59
2023/06/11 06:04:23;;;;;;;0.77;0.70;;;;;;;;;;2096117;28;20489;-60
2023/06/11 06:05:42;;;;;;;1.95;1.00;;;;;;;;;;2086685;28;20029;-60
2023/06/11 06:07:01;;;;;;;0.82;0.80;;;;;;;;;;2087241;28;20029;-60
2023/06/11 06:08:20;;;;;;;2.08;1.08;;;;;;;;;;2094874;28;20024;-60
2023/06/11 06:09:40;;;;;;;1.08;0.68;;;;;;;;;;2093245;28;20080;-59
2023/06/11 06:10:59;;;;;;;0.80;0.80;;;;;;;;;;2091644;28;20036;-60
2023/06/11 06:12:18;;;;;;;1.45;0.93;;;;;;;;;;2094433;28;20040;-59
2023/06/11 06:13:37;;;;;;;1.98;0.80;;;;;;;;;;2093319;28;20663;-62
2023/06/11 06:14:56;;;;;;;0.50;0.50;;;;;;;;;;2094775;28;20727;-59
2023/06/11 06:16:15;;;;;;;1.42;0.82;;;;;;;;;;2093163;28;20078;-60
2023/06/11 06:17:34;;;;;;;1.25;0.73;;;;;;;;;;2095936;28;20508;-60
2023/06/11 06:18:53;;;;;;;0.98;0.90;;;;;;;;;;2095673;28;20618;-61
2023/06/11 06:20:12;;;;;;;1.13;1.02;;;;;;;;;;2096105;28;20024;-61
2023/06/11 06:21:31;;;;;;;0.82;0.57;;;;;;;;;;2086772;28;20509;-61
2023/06/11 06:22:50;;;;;;;2.65;0.88;;;;;;;;;;2092206;28;20036;-60
2023/06/11 06:24:10;;;;;;;1.08;0.98;;;;;;;;;;2092437;28;20509;-58
2023/06/11 06:25:29;;;;;;;1.67;0.80;;;;;;;;;;2093174;28;20037;-60
2023/06/11 06:26:51;;;;;;;2.83;0.70;;;;;;;;;;2093969;28;20390;-58
2023/06/11 06:28:10;;;;;;;1.85;0.80;;;;;;;;;;2093914;28;20029;-60
2023/06/11 06:29:32;;;;;;;0.82;0.68;;;;;;;;;;2084786;28;20033;-59
2023/06/11 06:30:51;;;;;;;0.90;0.80;;;;;;;;;;2089310;28;20028;-58
2023/06/11 06:32:10;;;;;;;0.93;0.80;;;;;;;;;;2090843;28;20029;-58
2023/06/11 06:33:34;;;;;;;0.70;0.70;;;;;;;;;;2094195;28;20033;-60
2023/06/11 06:34:53;;;;;;;0.70;0.70;;;;;;;;;;2094909;28;20029;-60
2023/06/11 06:36:12;;;;;;;0.75;0.63;;;;;;;;;;2094971;28;20029;-60
2023/06/11 06:37:31;;;;;;;0.93;0.93;;;;;;;;;;2094689;28;20482;-60
2023/06/11 06:38:50;;;;;;;2.40;0.70;;;;;;;;;;2096733;28;20036;-60
2023/06/11 06:40:09;;;;;;;2.38;0.80;;;;;;;;;;2092268;28;20021;-60
2023/06/11 06:41:28;;;;;;;1.40;0.50;;;;;;;;;;2093605;28;20029;-59
2023/06/11 06:42:47;;;;;;;0.98;0.80;;;;;;;;;;2089046;28;20028;-59
2023/06/11 06:44:05;;;;;;;0.95;0.90;;;;;;;;;;2089987;28;20107;-60
2023/06/11 06:45:25;;;;;;;0.82;0.82;;;;;;;;;;2092779;28;20040;-60
2023/06/11 06:46:43;;;;;;;1.20;0.77;;;;;;;;;;2091290;28;20052;-60
2023/06/11 06:48:03;;;;;;;1.67;0.80;;;;;;;;;;2087565;28;20036;-60
2023/06/11 06:49:21;;;;;;;1.65;0.90;;;;;;;;;;2093459;28;20120;-60
2023/06/11 06:50:40;;;;;;;4.10;0.80;;;;;;;;;;2094577;28;20488;-60
2023/06/11 06:51:59;;;;;;;0.70;0.70;;;;;;;;;;2094755;28;20099;-60
2023/06/11 06:53:18;;;;;;;1.13;0.80;;;;;;;;;;2089441;28;20037;-60
2023/06/11 06:54:37;;;;;;;0.80;0.80;;;;;;;;;;2095631;28;20028;-59
2023/06/11 06:55:58;;;;;;;1.83;0.73;;;;;;;;;;2095008;28;20037;-59
2023/06/11 06:57:18;;;;;;;0.85;0.85;;;;;;;;;;2084631;28;20033;-59
2023/06/11 06:58:38;;;;;;;0.70;0.70;;;;;;;;;;2086130;28;20029;-60
2023/06/11 06:59:57;;;;;;;0.70;0.70;;;;;;;;;;2092488;28;20111;-58
2023/06/11 07:01:16;;;;;;;0.55;0.55;;;;;;;;;;2094667;28;20465;-60
2023/06/11 07:02:35;;;;;;;0.85;0.77;;;;;;;;;;2094939;28;20068;-60
2023/06/11 07:03:54;;;;;;;0.90;0.70;;;;;;;;;;2094386;28;20054;-61
2023/06/11 07:05:13;;;;;;;0.70;0.70;;;;;;;;;;2093055;28;20032;-59
2023/06/11 07:06:32;;;;;;;0.60;0.60;;;;;;;;;;2096419;28;20021;-59
2023/06/11 07:07:51;;;;;;;0.70;0.70;;;;;;;;;;2082910;28;20025;-59
2023/06/11 07:09:10;;;;;;;1.15;0.70;;;;;;;;;;2091433;28;20032;-59
2023/06/11 07:10:30;;;;;;;1.67;0.68;;;;;;;;;;2094610;28;20073;-59
2023/06/11 07:11:49;;;;;;;0.40;0.40;;;;;;;;;;2093266;28;20412;-59
2023/06/11 07:13:11;;;;;;;1.20;0.60;;;;;;;;;;2095032;28;20021;-60
2023/06/11 07:14:30;;;;;;;4.00;0.80;;;;;;;;;;2090639;28;20029;-60
2023/06/11 07:15:50;;;;;;;0.52;0.52;;;;;;;;;;2093031;28;20024;-60
2023/06/11 07:17:09;;;;;;;0.75;0.60;;;;;;;;;;2094278;28;20040;-60
2023/06/11 07:18:28;;;;;;;0.60;0.60;;;;;;;;;;2082018;28;20021;-59
2023/06/11 07:19:47;;;;;;;1.27;0.70;;;;;;;;;;2089599;28;20060;-60
2023/06/11 07:21:06;;;;;;;1.85;0.80;;;;;;;;;;2093376;28;20028;-60
2023/06/11 07:22:25;;;;;;;0.63;0.63;;;;;;;;;;2096257;28;20020;-59
2023/06/11 07:23:44;;;;;;;0.73;0.68;;;;;;;;;;2093193;28;20028;-59
2023/06/11 07:25:03;;;;;;;1.58;0.63;;;;;;;;;;2095368;28;20107;-60
2023/06/11 07:26:22;;;;;;;0.70;0.70;;;;;;;;;;2093057;28;20033;-60
2023/06/11 07:27:42;;;;;;;1.42;0.70;;;;;;;;;;2093562;28;20060;-59
2023/06/11 07:29:02;;;;;;;1.25;0.57;;;;;;;;;;2084177;28;20418;-60
2023/06/11 07:30:21;;;;;;;0.63;0.57;;;;;;;;;;2087771;28;20033;-60
2023/06/11 07:31:40;;;;;;;0.85;0.85;;;;;;;;;;2095151;28;20246;-61
2023/06/11 07:32:59;;;;;;;2.65;0.90;;;;;;;;;;2093084;28;20028;-61
2023/06/11 07:34:20;;;;;;;0.57;0.50;;;;;;;;;;2094319;28;20017;-59
2023/06/11 07:35:39;;;;;;;0.63;0.63;;;;;;;;;;2093157;28;20048;-60
2023/06/11 07:36:58;;;;;;;1.17;0.88;;;;;;;;;;2094280;28;20029;-59
2023/06/11 07:38:17;;;;;;;1.05;0.68;;;;;;;;;;2094174;28;20056;-60
2023/06/11 07:39:36;;;;;;;0.73;0.73;;;;;;;;;;2095041;28;20465;-59
2023/06/11 07:40:55;;;;;;;0.88;0.80;;;;;;;;;;2094153;28;20025;-59
2023/06/11 07:42:14;;;;;;;0.70;0.70;;;;;;;;;;2095719;28;20021;-60
2023/06/11 07:43:33;;;;;;;0.68;0.68;;;;;;;;;;2096283;28;20021;-60
2023/06/11 07:44:51;;;;;;;0.65;0.60;;;;;;;;;;2093799;28;20037;-60
2023/06/11 07:46:10;;;;;;;0.77;0.70;;;;;;;;;;2093980;28;20036;-60
2023/06/11 07:47:29;;;;;;;1.23;0.80;;;;;;;;;;2094251;28;20033;-60
2023/06/11 07:48:48;;;;;;;0.70;0.60;;;;;;;;;;2093614;28;20060;-59
2023/06/11 07:50:08;;;;;;;0.93;0.70;;;;;;;;;;2094089;28;20024;-60
2023/06/11 07:51:28;;;;;;;0.57;0.57;;;;;;;;;;2092810;28;20016;-60
2023/06/11 07:52:47;;;;;;;0.75;0.65;;;;;;;;;;2095255;28;20016;-59
2023/06/11 07:54:06;;;;;;;5.07;0.60;;;;;;;;;;2091426;28;20029;-60
2023/06/11 07:55:25;;;;;;;0.50;0.50;;;;;;;;;;2094512;28;20036;-59
2023/06/11 07:56:46;;;;;;;0.65;0.63;;;;;;;;;;2091018;28;20036;-60